This is the latest recevied weather packets stored in our database for station/object KK7ISX. If no packets are shown the sender has not sent any weather packets the latest 10 day(s).
| Time | Temp. | Humidity | Pressure | Rain* | Wind** | Luminosity | Snow |
|---|---|---|---|---|---|---|---|
| 1777910121 | 16.67° C | 52% | 1009 hPa | 0 mm | - | 386 W/m² | - |
| 1777909820 | 16.11° C | 53% | 1009.1 hPa | 0 mm | - | 422 W/m² | - |
| 1777909516 | 16.11° C | 52% | 1009.2 hPa | 0 mm | - | 407 W/m² | - |
| 1777909213 | 16.67° C | 51% | 1009.2 hPa | 0 mm | - | 348 W/m² | - |
| 1777908911 | 16.67° C | 52% | 1009.1 hPa | 0 mm | - | 360 W/m² | - |
| 1777908609 | 15.56° C | 53% | 1009 hPa | 0 mm | - | 340 W/m² | - |
| 1777908305 | 15.56° C | 53% | 1009.2 hPa | 0 mm | - | 323 W/m² | - |
| 1777908001 | 15.56° C | 53% | 1009 hPa | 0 mm | - | 303 W/m² | - |
| 1777907697 | 15.56° C | 54% | 1008.7 hPa | 0 mm | - | 284 W/m² | - |
| 1777907392 | 15.56° C | 54% | 1009.1 hPa | 0 mm | - | 266 W/m² | - |
| 1777907089 | 15.56° C | 56% | 1008.7 hPa | 0 mm | - | 250 W/m² | - |
| 1777906787 | 15° C | 55% | 1009 hPa | 0 mm | - | 234 W/m² | - |
| 1777906484 | 15° C | 57% | 1008.9 hPa | 0 mm | - | 221 W/m² | - |
| 1777906180 | 14.44° C | 60% | 1008.7 hPa | 0 mm | - | 206 W/m² | - |
| 1777905877 | 15° C | 60% | 1008.9 hPa | 0 mm | - | 193 W/m² | - |
| 1777905574 | 14.44° C | 61% | 1009.1 hPa | 0 mm | - | 172 W/m² | - |
| 1777905271 | 13.89° C | 60% | 1009 hPa | 0 mm | - | 66 W/m² | - |
| 1777904968 | 13.89° C | 62% | 1009.1 hPa | 0 mm | - | 48 W/m² | - |
| 1777904665 | 13.89° C | 62% | 1008.7 hPa | 0 mm | - | 47 W/m² | - |
| 1777904362 | 14.44° C | 60% | 1008.9 hPa | 0 mm | - | 46 W/m² | - |
| 1777904059 | 14.44° C | 60% | 1008.7 hPa | 0 mm | - | 44 W/m² | - |
| 1777903755 | 13.33° C | 63% | 1008.7 hPa | 0 mm | - | 43 W/m² | - |
| 1777903451 | 14.44° C | 60% | 1009 hPa | 0 mm | - | 42 W/m² | - |
| 1777903148 | 13.33° C | 63% | 1009 hPa | 0 mm | - | 41 W/m² | - |
| 1777902845 | 13.33° C | 62% | 1008.5 hPa | 0 mm | - | 40 W/m² | - |
* Rain latest hour (hover to see other rain measurements)
** Current wind speed in m/s (hover to see current wind gust speed)